Time;durP1;ratioP1;P1;durP2;ratioP2;P2;SDS_P1;SDS_P2;PMS_P1;PMS_P2;Temp;Humidity;BMP_temperature;BMP_pressure;BME280_temperature;BME280_humidity;BME280_pressure;Samples;Min_cycle;Max_cycle;Signal;HPM_P1;HPM_P2
2023/05/23 00:01:21;;;;;;;8.83;8.03;;;15.80;99.90;;;;;;6187239;23;20134;-72
2023/05/23 00:03:48;;;;;;;11.80;8.70;;;15.70;99.90;;;;;;6187537;23;20163;-70
2023/05/23 00:06:13;;;;;;;7.10;6.40;;;15.70;99.90;;;;;;6187960;23;20358;-71
2023/05/23 00:08:39;;;;;;;9.07;7.60;;;15.50;99.90;;;;;;6187556;23;20365;-72
2023/05/23 00:11:05;;;;;;;10.50;8.80;;;15.40;99.90;;;;;;6189288;23;20162;-71
2023/05/23 00:13:33;;;;;;;11.40;10.20;;;15.40;99.90;;;;;;6187782;23;20200;-72
2023/05/23 00:15:59;;;;;;;11.77;8.83;;;15.40;99.90;;;;;;6187479;23;20362;-72
2023/05/23 00:18:25;;;;;;;10.53;9.20;;;15.30;99.90;;;;;;6187369;23;20461;-71
2023/05/23 00:20:50;;;;;;;10.17;9.17;;;15.40;99.90;;;;;;6187033;23;20384;-71
2023/05/23 00:23:21;;;;;;;10.60;9.57;;;15.30;99.90;;;;;;6187759;23;20217;-72
2023/05/23 00:25:51;;;;;;;12.07;9.70;;;15.20;99.90;;;;;;6187113;23;20141;-72
2023/05/23 00:28:17;;;;;;;12.07;10.77;;;15.10;99.90;;;;;;6187261;23;20353;-71
2023/05/23 00:30:43;;;;;;;10.27;8.93;;;15.00;99.90;;;;;;6187265;23;20460;-72
2023/05/23 00:33:09;;;;;;;10.83;9.80;;;14.90;99.90;;;;;;6187613;23;20366;-72
2023/05/23 00:35:34;;;;;;;10.00;8.80;;;14.80;99.90;;;;;;6161280;23;20376;-71
2023/05/23 00:38:01;;;;;;;11.70;8.90;;;14.80;99.90;;;;;;6161354;23;20575;-72
2023/05/23 00:40:26;;;;;;;9.60;8.60;;;14.80;99.90;;;;;;6186821;23;20167;-71
2023/05/23 00:42:52;;;;;;;12.43;10.87;;;14.70;99.90;;;;;;6187727;23;20432;-72
2023/05/23 00:45:17;;;;;;;14.43;12.10;;;14.70;99.90;;;;;;6187897;23;20127;-71
2023/05/23 00:47:44;;;;;;;13.73;12.00;;;14.70;99.90;;;;;;6187919;23;20523;-72
2023/05/23 00:50:14;;;;;;;14.00;9.63;;;14.80;99.90;;;;;;6186919;23;20189;-71
2023/05/23 00:52:42;;;;;;;12.67;9.60;;;14.90;99.90;;;;;;6188666;23;20354;-72
2023/05/23 00:55:09;;;;;;;12.33;9.43;;;15.00;99.90;;;;;;6188501;23;20357;-72
2023/05/23 00:57:39;;;;;;;11.73;10.50;;;15.00;99.90;;;;;;6189133;23;20758;-72
2023/05/23 01:00:08;;;;;;;14.10;10.93;;;15.20;99.90;;;;;;6188763;23;20409;-71
2023/05/23 01:02:43;;;;;;;14.43;11.80;;;15.20;99.90;;;;;;6163808;23;20364;-72
2023/05/23 01:05:13;;;;;;;11.97;10.77;;;15.40;99.90;;;;;;6163302;23;20520;-72
2023/05/23 01:07:40;;;;;;;12.50;10.00;;;15.50;99.90;;;;;;6163020;23;20370;-71
2023/05/23 01:10:07;;;;;;;10.00;8.97;;;15.60;99.90;;;;;;6190063;23;20393;-72
2023/05/23 01:12:53;;;;;;;11.20;9.13;;;15.70;99.90;;;;;;6189654;23;20361;-70
2023/05/23 01:15:22;;;;;;;11.50;10.30;;;15.80;99.90;;;;;;6163572;23;20508;-71
2023/05/23 01:18:03;;;;;;;11.23;9.87;;;15.70;99.90;;;;;;6189306;23;20365;-71
2023/05/23 01:20:37;;;;;;;10.47;9.20;;;15.80;99.90;;;;;;6162759;23;20480;-71
2023/05/23 01:23:47;;;;;;;10.57;9.03;;;15.90;99.90;;;;;;6162862;23;20370;-70
2023/05/23 01:26:27;;;;;;;12.80;8.60;;;16.00;99.90;;;;;;6164135;23;20380;-71
2023/05/23 01:29:10;;;;;;;12.30;10.00;;;16.00;99.90;;;;;;6188180;23;20460;-71
2023/05/23 01:31:41;;;;;;;11.17;9.47;;;16.10;99.90;;;;;;6189144;23;20360;-71
2023/05/23 01:34:09;;;;;;;11.87;10.03;;;16.00;99.90;;;;;;6163875;23;20433;-72
2023/05/23 01:36:41;;;;;;;10.90;9.40;;;16.00;99.90;;;;;;6189354;23;20369;-72
2023/05/23 01:39:06;;;;;;;12.80;11.50;;;16.00;99.90;;;;;;6190006;23;20826;-71
2023/05/23 01:41:33;;;;;;;14.00;10.77;;;15.90;99.90;;;;;;6194161;23;20806;-72
2023/05/23 01:43:59;;;;;;;11.90;10.60;;;15.90;99.90;;;;;;6191474;23;20437;-71
2023/05/23 01:46:27;;;;;;;13.70;10.17;;;15.90;99.90;;;;;;6189497;23;20592;-71
2023/05/23 01:48:54;;;;;;;14.33;10.47;;;16.00;99.90;;;;;;6162398;23;20421;-72
2023/05/23 01:51:21;;;;;;;12.20;10.90;;;16.00;99.90;;;;;;6162917;23;20437;-72
2023/05/23 01:53:47;;;;;;;12.30;8.53;;;15.90;99.90;;;;;;6163253;23;20370;-72
2023/05/23 01:56:13;;;;;;;10.93;8.93;;;15.80;99.90;;;;;;6163704;23;20429;-72
2023/05/23 01:58:39;;;;;;;9.60;7.30;;;16.00;99.90;;;;;;6163841;23;20460;-72
2023/05/23 02:01:04;;;;;;;7.60;6.80;;;15.90;99.90;;;;;;6163793;23;20417;-71
2023/05/23 02:03:30;;;;;;;7.83;6.23;;;15.80;99.90;;;;;;6188956;23;20166;-71
2023/05/23 02:05:56;;;;;;;7.47;6.63;;;15.70;99.90;;;;;;6162938;23;20143;-71
2023/05/23 02:08:21;;;;;;;6.40;5.50;;;15.70;99.90;;;;;;6188430;23;20508;-71
2023/05/23 02:10:47;;;;;;;7.10;6.40;;;15.70;99.90;;;;;;6188318;23;20209;-72
2023/05/23 02:13:12;;;;;;;6.20;5.60;;;15.60;99.90;;;;;;6188316;23;20149;-71
2023/05/23 02:15:38;;;;;;;5.80;5.03;;;15.60;99.90;;;;;;6188079;23;20146;-71
2023/05/23 02:18:05;;;;;;;6.03;4.70;;;15.60;99.90;;;;;;6187326;23;20138;-72
2023/05/23 02:20:30;;;;;;;6.40;5.80;;;15.60;99.90;;;;;;6186998;23;20181;-72
2023/05/23 02:22:56;;;;;;;4.93;4.20;;;15.70;99.90;;;;;;6188943;23;20366;-72
2023/05/23 02:25:22;;;;;;;5.57;4.80;;;15.60;99.90;;;;;;6188705;23;20495;-72
2023/05/23 02:27:47;;;;;;;5.60;4.50;;;15.70;99.90;;;;;;6162358;23;20141;-72
2023/05/23 02:30:13;;;;;;;5.23;4.50;;;15.60;99.90;;;;;;6161906;23;20179;-71
2023/05/23 02:32:38;;;;;;;4.93;4.43;;;15.60;99.90;;;;;;6162318;23;20250;-71
2023/05/23 02:35:05;;;;;;;4.70;4.27;;;15.60;99.90;;;;;;6163157;23;20147;-71
2023/05/23 02:37:30;;;;;;;6.13;4.50;;;15.60;99.90;;;;;;6188943;23;20131;-71
2023/05/23 02:39:56;;;;;;;6.97;4.90;;;15.60;99.90;;;;;;6165746;23;20412;-71
2023/05/23 02:42:21;;;;;;;5.30;4.80;;;15.60;99.90;;;;;;6190466;23;20139;-72
2023/05/23 02:44:47;;;;;;;6.40;4.50;;;15.50;99.90;;;;;;6161982;23;20162;-71
2023/05/23 02:47:13;;;;;;;5.07;4.60;;;15.50;99.90;;;;;;6161941;23;20542;-71
2023/05/23 02:49:38;;;;;;;6.93;5.10;;;15.50;99.90;;;;;;6156538;23;20504;-70
2023/05/23 02:52:05;;;;;;;7.10;5.43;;;15.50;99.90;;;;;;6157404;23;20481;-71
2023/05/23 02:54:31;;;;;;;7.40;5.07;;;15.50;99.90;;;;;;6157716;23;20472;-70
2023/05/23 02:56:57;;;;;;;5.70;5.20;;;15.50;99.90;;;;;;6157488;23;20441;-70
2023/05/23 02:59:22;;;;;;;7.20;5.30;;;15.50;99.90;;;;;;6157522;23;20171;-71
2023/05/23 03:01:48;;;;;;;5.47;4.60;;;15.50;99.90;;;;;;6157747;23;20462;-72
2023/05/23 03:04:14;;;;;;;8.23;5.20;;;15.50;99.90;;;;;;6158771;23;20233;-71
2023/05/23 03:06:41;;;;;;;7.20;4.77;;;15.50;99.90;;;;;;6158541;23;20139;-72
2023/05/23 03:09:07;;;;;;;5.60;4.97;;;15.40;99.90;;;;;;6181390;23;20454;-70
2023/05/23 03:11:33;;;;;;;6.13;4.93;;;15.40;99.90;;;;;;6156972;23;20367;-71
2023/05/23 03:13:58;;;;;;;9.63;7.03;;;15.40;99.90;;;;;;6158069;23;20426;-72
2023/05/23 03:16:24;;;;;;;6.13;5.53;;;15.40;99.90;;;;;;6156789;23;20174;-72
2023/05/23 03:18:50;;;;;;;7.90;6.30;;;15.40;99.90;;;;;;6156557;23;20135;-71
2023/05/23 03:21:15;;;;;;;6.93;6.23;;;15.40;99.90;;;;;;6158551;23;20147;-71
2023/05/23 03:23:41;;;;;;;9.63;6.60;;;15.40;99.90;;;;;;6158497;23;20155;-71
2023/05/23 03:26:07;;;;;;;11.40;7.50;;;15.30;99.90;;;;;;6158574;23;20147;-72
2023/05/23 03:28:32;;;;;;;11.17;6.73;;;15.30;99.90;;;;;;6157740;23;20494;-72
2023/05/23 03:30:58;;;;;;;6.93;6.30;;;15.30;99.90;;;;;;6157341;23;20659;-73
2023/05/23 03:33:24;;;;;;;11.47;7.27;;;15.30;99.90;;;;;;6158366;23;20140;-72
2023/05/23 03:35:50;;;;;;;9.50;7.47;;;15.30;99.90;;;;;;6158078;23;20139;-71
2023/05/23 03:38:15;;;;;;;8.53;7.00;;;15.30;99.90;;;;;;6158431;23;20269;-72
2023/05/23 03:40:41;;;;;;;9.10;8.20;;;15.30;99.90;;;;;;6158310;23;20390;-72
2023/05/23 03:43:07;;;;;;;10.93;7.67;;;15.30;99.90;;;;;;6157732;23;20147;-71
2023/05/23 03:45:36;;;;;;;10.80;8.30;;;15.20;99.90;;;;;;6157193;23;20143;-71
2023/05/23 03:48:09;;;;;;;11.37;9.10;;;15.10;99.90;;;;;;6161080;23;20684;-71
2023/05/23 03:50:35;;;;;;;10.00;7.53;;;15.10;99.90;;;;;;6184850;23;20390;-71
2023/05/23 03:53:00;;;;;;;9.10;7.80;;;15.10;99.90;;;;;;6162472;23;20385;-71
2023/05/23 03:55:26;;;;;;;13.20;9.17;;;15.00;99.90;;;;;;6162312;23;20212;-71
2023/05/23 03:57:52;;;;;;;11.10;8.47;;;15.00;99.90;;;;;;6161012;23;20272;-71
2023/05/23 04:00:18;;;;;;;10.43;7.30;;;15.00;99.90;;;;;;6161165;23;20178;-73
2023/05/23 04:02:45;;;;;;;11.47;7.60;;;15.00;99.90;;;;;;6191980;23;20652;-71
2023/05/23 04:05:14;;;;;;;10.33;6.93;;;15.10;99.90;;;;;;6165390;23;20563;-73
2023/05/23 04:07:41;;;;;;;8.77;7.80;;;15.00;99.90;;;;;;6191918;23;20512;-71
2023/05/23 04:10:09;;;;;;;8.83;7.10;;;15.10;99.90;;;;;;6164957;23;20398;-71
2023/05/23 04:12:36;;;;;;;12.87;7.23;;;15.00;99.90;;;;;;6164667;23;20412;-73
2023/05/23 04:15:04;;;;;;;9.97;6.53;;;15.00;99.90;;;;;;6166342;23;20895;-72
2023/05/23 04:17:32;;;;;;;12.90;6.53;;;15.00;99.90;;;;;;6170382;23;20436;-72
2023/05/23 04:19:58;;;;;;;8.70;6.07;;;15.00;99.90;;;;;;6173189;23;20612;-73
2023/05/23 04:22:24;;;;;;;9.70;6.80;;;15.10;99.90;;;;;;6170019;23;20206;-73
2023/05/23 04:24:50;;;;;;;8.40;7.10;;;15.10;99.90;;;;;;6165789;23;20412;-74
2023/05/23 04:27:17;;;;;;;8.90;5.93;;;15.10;99.90;;;;;;6166269;23;20161;-74
2023/05/23 04:29:43;;;;;;;7.43;6.10;;;15.30;99.90;;;;;;6193559;23;20421;-73
2023/05/23 04:32:08;;;;;;;10.77;6.70;;;15.30;99.90;;;;;;6167495;23;20229;-73
2023/05/23 04:34:34;;;;;;;10.50;5.97;;;15.30;99.90;;;;;;6192484;23;20433;-72
2023/05/23 04:37:01;;;;;;;7.47;5.83;;;15.30;99.90;;;;;;6167262;23;20170;-74
2023/05/23 04:39:30;;;;;;;8.23;6.60;;;15.30;99.90;;;;;;6166063;23;20725;-74
2023/05/23 04:42:23;;;;;;;7.03;5.93;;;15.30;99.90;;;;;;6192541;23;20378;-74
2023/05/23 04:44:57;;;;;;;5.97;5.03;;;15.30;99.90;;;;;;6171936;23;20421;-74
2023/05/23 04:47:43;;;;;;;8.60;6.17;;;15.20;99.90;;;;;;6170605;23;20378;-74
2023/05/23 04:50:15;;;;;;;9.07;6.33;;;15.30;99.90;;;;;;6191606;23;20444;-73
2023/05/23 04:52:41;;;;;;;11.10;6.67;;;15.40;99.90;;;;;;6167030;23;20365;-74
2023/05/23 04:55:08;;;;;;;10.20;6.80;;;15.30;99.90;;;;;;6168651;23;20636;-73
2023/05/23 04:57:34;;;;;;;10.30;7.23;;;15.30;99.90;;;;;;6168675;23;20386;-74
2023/05/23 05:00:04;;;;;;;10.00;6.30;;;15.20;99.90;;;;;;6168496;23;20416;-72
2023/05/23 05:02:34;;;;;;;10.43;5.90;;;15.30;99.90;;;;;;6167869;23;20372;-73
2023/05/23 05:05:00;;;;;;;8.73;6.43;;;15.20;99.90;;;;;;6168040;23;20418;-75
2023/05/23 05:07:25;;;;;;;8.43;5.97;;;15.20;99.90;;;;;;6168188;23;20370;-72
2023/05/23 05:09:51;;;;;;;7.90;6.43;;;15.20;99.90;;;;;;6168291;23;20858;-73
2023/05/23 05:12:17;;;;;;;8.67;6.20;;;15.10;99.90;;;;;;6172013;23;20166;-73
2023/05/23 05:14:42;;;;;;;9.13;6.77;;;15.10;99.90;;;;;;6197574;23;20202;-74
2023/05/23 05:17:09;;;;;;;8.77;6.70;;;15.10;99.90;;;;;;6174328;23;20155;-73
2023/05/23 05:19:45;;;;;;;8.00;6.00;;;15.10;99.90;;;;;;6148533;23;20393;-74
2023/05/23 05:22:11;;;;;;;8.23;6.77;;;15.10;99.90;;;;;;6170043;23;20505;-73
2023/05/23 05:24:36;;;;;;;10.23;7.20;;;15.10;99.90;;;;;;6168833;23;20449;-74
2023/05/23 05:27:03;;;;;;;7.97;6.60;;;15.30;99.90;;;;;;6173455;23;20430;-73
2023/05/23 05:29:30;;;;;;;16.73;7.33;;;15.30;99.90;;;;;;6169293;23;20405;-76
2023/05/23 05:31:55;;;;;;;9.87;7.87;;;15.20;99.90;;;;;;6192544;23;20210;-75
2023/05/23 05:34:21;;;;;;;9.10;6.10;;;15.20;99.90;;;;;;6193136;23;20442;-74
2023/05/23 05:36:47;;;;;;;11.60;7.47;;;15.20;99.90;;;;;;6170792;23;20174;-75
2023/05/23 05:39:15;;;;;;;9.57;6.20;;;15.30;99.90;;;;;;6168347;23;20402;-74
2023/05/23 05:41:41;;;;;;;8.10;5.93;;;15.30;99.90;;;;;;6170954;23;20813;-75
2023/05/23 05:44:07;;;;;;;9.27;6.17;;;15.30;99.90;;;;;;6197380;23;20410;-75
2023/05/23 05:46:33;;;;;;;8.30;7.40;;;15.30;99.90;;;;;;6199469;23;20177;-74
2023/05/23 05:48:58;;;;;;;9.80;6.60;;;15.40;99.90;;;;;;6171714;23;20425;-75
2023/05/23 05:51:25;;;;;;;8.23;6.60;;;15.40;99.90;;;;;;6170214;23;20158;-73
2023/05/23 05:53:50;;;;;;;9.00;6.90;;;15.40;99.90;;;;;;6196371;23;20437;-74
2023/05/23 05:56:16;;;;;;;8.17;6.80;;;15.40;99.90;;;;;;6169952;23;20155;-74
2023/05/23 05:58:42;;;;;;;9.47;6.50;;;15.30;99.90;;;;;;6169750;23;20154;-74
2023/05/23 06:01:11;;;;;;;10.47;7.83;;;15.30;99.90;;;;;;6171158;23;20414;-76
2023/05/23 06:03:36;;;;;;;9.23;7.80;;;15.30;99.90;;;;;;6174063;23;20453;-77
2023/05/23 06:06:03;;;;;;;9.30;7.40;;;15.30;99.90;;;;;;6171397;23;20381;-75
2023/05/23 06:08:28;;;;;;;10.23;8.20;;;15.40;99.90;;;;;;6173022;23;20703;-73
2023/05/23 06:10:55;;;;;;;8.30;7.40;;;15.30;99.90;;;;;;6198568;23;20166;-76
2023/05/23 06:13:21;;;;;;;11.13;7.47;;;15.30;99.90;;;;;;6170129;23;20139;-73
2023/05/23 06:15:51;;;;;;;11.23;8.37;;;15.40;99.90;;;;;;6170870;23;20426;-75
2023/05/23 06:18:18;;;;;;;14.03;8.07;;;15.40;99.90;;;;;;6172665;23;20386;-75
2023/05/23 06:20:43;;;;;;;9.37;7.50;;;15.40;99.90;;;;;;6169475;23;20406;-74
2023/05/23 06:23:13;;;;;;;11.13;7.90;;;15.40;99.90;;;;;;6170587;23;20432;-78
2023/05/23 06:25:39;;;;;;;13.50;8.57;;;15.40;99.90;;;;;;6172782;23;20393;-77
2023/05/23 06:28:05;;;;;;;11.63;7.90;;;15.40;99.90;;;;;;6199774;23;20131;-75
2023/05/23 06:30:32;;;;;;;22.50;9.40;;;15.30;99.90;;;;;;6195997;23;20469;-75
2023/05/23 06:32:58;;;;;;;11.63;8.43;;;15.30;99.90;;;;;;6196338;23;20135;-76
2023/05/23 06:35:26;;;;;;;12.30;7.73;;;15.30;99.90;;;;;;6201701;23;20378;-74
2023/05/23 06:37:52;;;;;;;11.37;6.97;;;15.40;99.90;;;;;;6176038;23;20396;-75
2023/05/23 06:40:17;;;;;;;9.80;7.83;;;15.40;99.90;;;;;;6173601;23;20421;-76
2023/05/23 06:42:44;;;;;;;11.97;8.50;;;15.40;99.90;;;;;;6201489;23;20134;-77
2023/05/23 06:45:23;;;;;;;13.60;7.40;;;15.50;99.90;;;;;;6173239;23;20818;-76
2023/05/23 06:47:51;;;;;;;11.10;7.80;;;15.40;99.90;;;;;;6173235;23;20377;-75
2023/05/23 06:50:18;;;;;;;13.53;8.30;;;15.40;99.90;;;;;;6150268;23;20686;-76
2023/05/23 06:52:48;;;;;;;9.23;7.80;;;15.30;99.90;;;;;;6173529;23;20822;-77
2023/05/23 06:55:17;;;;;;;10.83;8.73;;;15.30;99.90;;;;;;6176923;23;20384;-77
2023/05/23 06:57:44;;;;;;;15.63;9.50;;;15.30;99.90;;;;;;6172473;23;20372;-75
2023/05/23 07:00:12;;;;;;;11.30;8.57;;;15.20;99.90;;;;;;6176250;23;20409;-74
2023/05/23 07:02:49;;;;;;;12.00;8.20;;;15.30;99.90;;;;;;6178461;23;20377;-77
2023/05/23 07:05:18;;;;;;;10.40;7.13;;;15.40;99.90;;;;;;6149477;23;20417;-75
2023/05/23 07:07:46;;;;;;;10.43;7.73;;;15.40;99.90;;;;;;6173781;23;20380;-76
2023/05/23 07:10:12;;;;;;;10.50;7.40;;;15.50;99.90;;;;;;6148559;23;20397;-77
2023/05/23 07:12:39;;;;;;;10.77;6.83;;;15.50;99.90;;;;;;6175042;23;20147;-76
2023/05/23 07:15:05;;;;;;;11.00;7.00;;;15.70;99.90;;;;;;6174008;23;20501;-75
2023/05/23 07:17:31;;;;;;;8.80;6.73;;;15.80;99.90;;;;;;6148680;23;20366;-76
2023/05/23 07:19:57;;;;;;;9.10;7.00;;;15.90;99.90;;;;;;6172843;23;20416;-74
2023/05/23 07:22:23;;;;;;;10.33;7.60;;;15.90;99.90;;;;;;6177323;23;20147;-75
2023/05/23 07:24:49;;;;;;;14.30;8.20;;;16.00;99.90;;;;;;6174610;23;20174;-77
2023/05/23 07:33:20;;;;;;;14.57;7.70;;;16.00;99.90;;;;;;6239628;22;20460;-78
2023/05/23 07:35:52;;;;;;;10.63;7.57;;;15.90;99.90;;;;;;6239535;23;20377;-77
2023/05/23 07:38:30;;;;;;;12.60;7.57;;;15.90;99.90;;;;;;6189527;23;20459;-78
2023/05/23 07:41:22;;;;;;;11.47;7.17;;;15.80;99.90;;;;;;6210204;23;20420;-77
2023/05/23 07:46:24;;;;;;;10.30;8.23;;;15.80;99.90;;;;;;6225446;22;20419;-74
2023/05/23 07:48:50;;;;;;;10.83;7.70;;;15.90;99.90;;;;;;6212811;23;20428;-74
2023/05/23 07:51:20;;;;;;;6.60;6.00;;;15.90;99.90;;;;;;6210946;23;20361;-75
2023/05/23 07:53:46;;;;;;;14.20;7.80;;;15.80;99.90;;;;;;6187231;23;20376;-76
2023/05/23 07:56:32;;;;;;;8.83;6.73;;;15.80;99.90;;;;;;6160394;23;20453;-74
2023/05/23 07:58:58;;;;;;;10.90;7.50;;;15.90;99.90;;;;;;6183042;23;20412;-73
2023/05/23 08:01:24;;;;;;;11.60;7.83;;;16.00;99.90;;;;;;6185881;23;20138;-77
2023/05/23 08:03:58;;;;;;;9.40;6.90;;;16.10;99.90;;;;;;6212513;23;20162;-75
2023/05/23 08:06:54;;;;;;;7.87;6.60;;;16.10;99.90;;;;;;6189859;23;20364;-76
2023/05/23 08:09:24;;;;;;;9.93;7.37;;;16.20;99.90;;;;;;6152016;23;20434;-75
2023/05/23 08:11:56;;;;;;;9.73;6.73;;;16.10;99.90;;;;;;6151673;23;20382;-77
2023/05/23 08:14:46;;;;;;;8.47;6.80;;;16.10;99.90;;;;;;6177903;23;20446;-75
2023/05/23 08:20:35;;;;;;;10.10;6.60;;;16.30;99.90;;;;;;6238677;22;20448;-77
2023/05/23 08:26:45;;;;;;;13.40;7.13;;;16.20;99.90;;;;;;6231415;22;20504;-74
2023/05/23 08:29:14;;;;;;;12.30;7.30;;;16.30;99.90;;;;;;6215659;23;20405;-75
2023/05/23 08:32:02;;;;;;;8.63;6.60;;;16.30;99.90;;;;;;6237848;23;20391;-77
2023/05/23 08:34:47;;;;;;;;;;;;;;;;;;;;;
2023/05/23 08:37:19;;;;;;;10.07;6.87;;;16.10;99.90;;;;;;6161674;23;20410;-77
2023/05/23 08:39:45;;;;;;;7.90;6.30;;;16.00;99.90;;;;;;6118932;23;20679;-77
2023/05/23 08:42:50;;;;;;;10.30;6.87;;;16.00;99.90;;;;;;6063240;23;20363;-77
2023/05/23 08:45:25;;;;;;;8.13;6.67;;;16.00;99.90;;;;;;6060944;23;20389;-78
2023/05/23 08:47:54;;;;;;;10.20;7.30;;;16.00;99.90;;;;;;6060739;23;20385;-75
2023/05/23 08:50:46;;;;;;;16.00;8.70;;;16.10;99.90;;;;;;6060843;23;20410;-78
2023/05/23 08:53:36;;;;;;;9.33;7.53;;;15.90;99.90;;;;;;6063627;23;20434;-78
2023/05/23 08:59:53;;;;;;;13.30;7.17;;;15.80;99.90;;;;;;6270808;22;20443;-76
2023/05/23 09:02:26;;;;;;;12.17;8.10;;;15.70;99.90;;;;;;6237423;23;20388;-75
2023/05/23 09:05:04;;;;;;;13.83;9.27;;;15.80;99.90;;;;;;6196217;22;20459;-77
2023/05/23 09:07:36;;;;;;;19.53;8.47;;;15.70;99.90;;;;;;6131545;23;20398;-78
2023/05/23 09:10:25;;;;;;;16.87;8.70;;;15.70;99.90;;;;;;6138228;23;20423;-75
2023/05/23 09:12:52;;;;;;;13.27;7.73;;;15.70;99.90;;;;;;6152136;23;20645;-76
2023/05/23 09:15:22;;;;;;;16.43;9.33;;;15.70;99.90;;;;;;6157453;23;20383;-79
2023/05/23 09:18:20;;;;;;;12.90;8.13;;;15.70;99.90;;;;;;6179344;23;20401;-76
2023/05/23 09:21:11;;;;;;;14.77;9.33;;;15.80;99.90;;;;;;6155991;23;20389;-77
2023/05/23 09:23:47;;;;;;;16.83;9.37;;;15.80;99.90;;;;;;6161695;23;20441;-75
2023/05/23 09:26:25;;;;;;;14.43;8.50;;;15.80;99.90;;;;;;6107880;23;20399;-77
2023/05/23 09:29:26;;;;;;;20.57;10.47;;;15.80;99.90;;;;;;6156727;23;20457;-75
2023/05/23 09:32:20;;;;;;;17.63;9.93;;;15.70;99.90;;;;;;6155800;23;20390;-77
2023/05/23 09:35:11;;;;;;;14.93;8.03;;;15.60;99.90;;;;;;6175486;23;20402;-75
2023/05/23 09:37:49;;;;;;;14.73;9.73;;;15.50;99.90;;;;;;6110455;23;20374;-76
2023/05/23 09:40:17;;;;;;;18.80;10.30;;;15.40;99.90;;;;;;6155823;23;20403;-76
2023/05/23 09:45:56;;;;;;;14.07;7.90;;;15.40;99.90;;;;;;6219203;23;20486;-78
2023/05/23 09:49:13;;;;;;;10.80;8.07;;;15.30;99.90;;;;;;6216450;23;20393;-76
2023/05/23 09:51:39;;;;;;;10.40;6.63;;;15.20;99.90;;;;;;6191023;23;20390;-75
2023/05/23 09:54:27;;;;;;;16.60;8.47;;;15.20;99.90;;;;;;6166549;22;20385;-77
2023/05/23 09:56:55;;;;;;;11.60;9.00;;;15.20;99.90;;;;;;6210793;23;20531;-77
2023/05/23 09:59:44;;;;;;;12.90;9.50;;;15.10;99.90;;;;;;6192561;23;20393;-78
2023/05/23 10:02:15;;;;;;;12.80;9.57;;;15.10;99.90;;;;;;6192813;23;20392;-75
2023/05/23 10:04:46;;;;;;;15.20;10.77;;;15.20;99.90;;;;;;6218226;23;20408;-78
2023/05/23 10:07:26;;;;;;;13.27;10.00;;;15.20;99.90;;;;;;6189958;23;20411;-77
2023/05/23 10:10:16;;;;;;;15.10;11.00;;;15.20;99.90;;;;;;6216223;23;20400;-76
2023/05/23 10:12:53;;;;;;;19.80;10.60;;;15.50;99.90;;;;;;6154195;23;20475;-75
2023/05/23 10:29:42;;;;;;;;;;;;;;;;;;;;;
2023/05/23 10:33:00;;;;;;;13.00;8.17;;;16.50;99.90;;;;;;6077241;23;20421;-79
2023/05/23 10:36:31;;;;;;;12.53;7.07;;;16.60;99.90;;;;;;6239076;22;20425;-79
2023/05/23 10:39:43;;;;;;;14.30;6.20;;;16.60;99.90;;;;;;6136359;23;20410;-78
2023/05/23 10:43:21;;;;;;;9.23;6.70;;;16.30;99.90;;;;;;6164334;23;20381;-77
2023/05/23 10:45:54;;;;;;;12.53;6.90;;;16.30;99.90;;;;;;6147454;23;20408;-76
2023/05/23 10:48:37;;;;;;;11.27;6.90;;;16.50;99.90;;;;;;6125330;23;20383;-76
2023/05/23 10:51:08;;;;;;;14.63;6.23;;;16.70;99.90;;;;;;6128405;23;20591;-77
2023/05/23 10:53:52;;;;;;;12.97;6.63;;;17.00;97.60;;;;;;6117499;23;20392;-78
2023/05/23 10:56:24;;;;;;;13.50;6.63;;;17.00;98.50;;;;;;6045325;23;20444;-77
2023/05/23 10:58:55;;;;;;;8.87;6.07;;;17.10;94.70;;;;;;6045881;23;20402;-77
2023/05/23 11:01:23;;;;;;;10.40;5.50;;;17.00;95.90;;;;;;6046842;23;20366;-77
2023/05/23 11:09:27;;;;;;;16.40;7.73;;;16.80;95.00;;;;;;6237674;22;20439;-76
2023/05/23 11:12:15;;;;;;;14.60;7.70;;;16.50;96.20;;;;;;6130933;23;20374;-75
2023/05/23 11:15:21;;;;;;;9.60;6.90;;;16.20;98.80;;;;;;6160128;23;20371;-77
2023/05/23 11:18:07;;;;;;;10.23;7.77;;;16.00;99.70;;;;;;6156299;23;20379;-78
2023/05/23 11:20:36;;;;;;;10.80;7.10;;;15.70;99.90;;;;;;6131723;23;20418;-78
2023/05/23 11:23:09;;;;;;;15.07;8.30;;;15.60;99.90;;;;;;6181395;23;20409;-77
2023/05/23 11:26:35;;;;;;;15.33;7.97;;;15.60;99.90;;;;;;6156806;23;20381;-78
2023/05/23 11:29:03;;;;;;;10.63;7.40;;;15.60;99.90;;;;;;6125559;23;20450;-77
2023/05/23 11:34:22;;;;;;;14.20;8.33;;;15.70;99.70;;;;;;6238474;22;20720;-77
2023/05/23 11:37:16;;;;;;;8.07;6.03;;;15.80;98.00;;;;;;6177236;23;20386;-76
2023/05/23 11:40:35;;;;;;;17.93;9.10;;;15.80;98.90;;;;;;6157970;23;20405;-74
2023/05/23 11:49:00;;;;;;;16.97;9.20;;;16.20;94.30;;;;;;6240160;22;20444;-75
2023/05/23 11:52:01;;;;;;;11.57;8.70;;;16.50;91.90;;;;;;6226385;23;20361;-77
2023/05/23 11:57:29;;;;;;;11.00;8.40;;;17.40;79.50;;;;;;6237229;22;20429;-75
2023/05/23 12:00:18;;;;;;;8.50;6.97;;;17.90;75.70;;;;;;6140002;23;20413;-78
2023/05/23 12:02:47;;;;;;;12.23;8.50;;;18.20;73.60;;;;;;6189949;23;20401;-80
2023/05/23 12:05:35;;;;;;;8.90;7.73;;;18.50;67.20;;;;;;6191273;23;20419;-76
2023/05/23 12:08:05;;;;;;;11.00;9.90;;;18.60;65.50;;;;;;6214122;23;20374;-75
2023/05/23 12:10:34;;;;;;;19.37;11.30;;;18.60;64.40;;;;;;6213524;23;20390;-77
2023/05/23 12:13:04;;;;;;;14.07;11.03;;;18.80;62.00;;;;;;6189491;23;20384;-76
2023/05/23 12:15:38;;;;;;;15.60;11.00;;;18.60;61.80;;;;;;6214751;23;20366;-76
2023/05/23 12:18:21;;;;;;;11.80;9.77;;;18.40;63.30;;;;;;6149860;23;20386;-76
2023/05/23 12:20:50;;;;;;;13.20;9.50;;;18.30;64.50;;;;;;6182631;23;20427;-75
2023/05/23 12:23:21;;;;;;;8.60;6.73;;;18.40;63.30;;;;;;6216169;22;20437;-76
2023/05/23 12:26:21;;;;;;;11.73;8.70;;;18.70;63.50;;;;;;6190670;23;20383;-79
2023/05/23 12:28:52;;;;;;;15.50;10.13;;;18.90;61.00;;;;;;6189661;23;20445;-76
2023/05/23 12:31:24;;;;;;;12.03;8.87;;;19.20;58.80;;;;;;6154092;23;20377;-78
2023/05/23 12:34:06;;;;;;;13.20;8.70;;;19.10;57.90;;;;;;6047411;23;20363;-74
2023/05/23 12:36:39;;;;;;;11.20;8.37;;;18.60;58.80;;;;;;6130879;23;20454;-78
2023/05/23 12:39:08;;;;;;;15.40;7.40;;;18.60;59.10;;;;;;6153412;23;20413;-75
2023/05/23 12:41:34;;;;;;;9.20;6.70;;;18.50;59.00;;;;;;6129384;23;20392;-74
2023/05/23 12:44:03;;;;;;;7.57;6.13;;;18.60;58.60;;;;;;6179770;23;20461;-79
2023/05/23 12:46:37;;;;;;;12.53;9.13;;;18.50;58.10;;;;;;6153722;23;20533;-77
2023/05/23 12:49:03;;;;;;;16.80;14.77;;;18.50;57.60;;;;;;6107896;23;20390;-75
2023/05/23 12:51:34;;;;;;;19.97;16.83;;;18.60;58.20;;;;;;6157296;23;20440;-77
2023/05/23 12:54:03;;;;;;;17.23;13.80;;;18.50;57.90;;;;;;6206350;23;20438;-76
2023/05/23 12:56:34;;;;;;;14.00;11.53;;;18.60;57.60;;;;;;6217957;22;20371;-77
2023/05/23 12:59:02;;;;;;;12.63;11.33;;;18.50;57.30;;;;;;6185818;23;20415;-77
2023/05/23 13:01:35;;;;;;;12.67;11.03;;;18.40;57.50;;;;;;6188506;23;20405;-78
2023/05/23 13:04:14;;;;;;;12.90;10.63;;;18.30;57.30;;;;;;6165420;23;20419;-79
2023/05/23 13:06:44;;;;;;;14.47;11.27;;;18.10;57.60;;;;;;6187725;23;20445;-78
2023/05/23 13:09:10;;;;;;;12.60;9.17;;;17.90;58.20;;;;;;6163119;23;20420;-75
2023/05/23 13:11:40;;;;;;;10.40;9.30;;;17.70;59.10;;;;;;6186873;23;20372;-76
2023/05/23 13:14:08;;;;;;;14.13;10.20;;;17.70;59.50;;;;;;6188314;23;20138;-78
2023/05/23 13:16:35;;;;;;;15.63;11.30;;;17.70;60.40;;;;;;6164847;23;20466;-78
2023/05/23 13:19:01;;;;;;;10.70;9.70;;;17.70;61.00;;;;;;6161331;23;20413;-77
2023/05/23 13:21:36;;;;;;;11.20;9.30;;;18.10;60.00;;;;;;6186127;23;20372;-78
2023/05/23 13:24:05;;;;;;;9.50;8.50;;;18.20;58.60;;;;;;6138111;23;20546;-78
2023/05/23 13:26:39;;;;;;;10.67;8.73;;;18.40;58.10;;;;;;6139806;23;20383;-78
2023/05/23 15:36:24;;;;;;;11.00;8.23;;;18.60;48.00;;;;;;6197080;22;20482;-73
2023/05/23 15:38:49;;;;;;;15.37;10.63;;;18.60;48.50;;;;;;6176660;23;20397;-74
2023/05/23 15:41:15;;;;;;;9.70;8.70;;;18.60;48.80;;;;;;6201443;23;20130;-74
2023/05/23 15:43:41;;;;;;;13.80;9.37;;;18.60;48.50;;;;;;6174812;23;20182;-76
2023/05/23 15:46:06;;;;;;;10.53;6.73;;;18.80;48.30;;;;;;6172611;23;20680;-74
2023/05/23 15:48:32;;;;;;;13.90;8.53;;;18.70;48.50;;;;;;6199406;23;20403;-75
2023/05/23 15:50:58;;;;;;;14.77;8.60;;;18.70;48.80;;;;;;6200852;23;20291;-74
2023/05/23 15:53:23;;;;;;;16.27;8.63;;;18.90;48.90;;;;;;6203767;23;20495;-76
2023/05/23 15:55:49;;;;;;;9.27;8.27;;;19.10;48.50;;;;;;6175557;23;20154;-76
2023/05/23 15:58:14;;;;;;;12.20;8.27;;;19.10;47.20;;;;;;6202445;23;20150;-76
2023/05/23 16:00:40;;;;;;;13.70;7.83;;;19.00;47.30;;;;;;6198730;23;20167;-77
2023/05/23 16:03:06;;;;;;;13.97;7.90;;;19.10;46.70;;;;;;6176750;23;20479;-75
2023/05/23 16:05:31;;;;;;;10.67;7.07;;;19.10;45.60;;;;;;6195896;23;20482;-75